createdAt,value
2016-07-10T00:00:40.758Z,19.28
2016-07-10T00:01:40.721Z,19.29
2016-07-10T00:02:40.730Z,19.2
2016-07-10T00:03:40.737Z,19.11
2016-07-10T00:04:40.799Z,19.17
2016-07-10T00:05:40.763Z,19.11
2016-07-10T00:06:40.742Z,19.17
2016-07-10T00:07:41.395Z,19.18
2016-07-10T00:08:40.776Z,19.06
2016-07-10T00:09:40.772Z,19.08
2016-07-10T00:10:40.750Z,19.13
2016-07-10T00:11:40.750Z,19.01
2016-07-10T00:12:40.753Z,19.1
2016-07-10T00:13:40.766Z,19.02
2016-07-10T00:14:40.775Z,18.97
2016-07-10T00:15:40.721Z,19.01
2016-07-10T00:16:40.734Z,18.95
2016-07-10T00:17:40.749Z,19.08
2016-07-10T00:18:40.730Z,19.01
2016-07-10T00:19:40.738Z,18.99
2016-07-10T00:20:40.727Z,18.95
2016-07-10T00:21:40.746Z,19.01
2016-07-10T00:22:40.727Z,18.95
2016-07-10T00:23:40.747Z,19.02
2016-07-10T00:24:40.719Z,19.06
2016-07-10T00:25:40.726Z,18.97
2016-07-10T00:26:40.736Z,18.97
2016-07-10T00:27:40.757Z,18.94
2016-07-10T00:28:40.740Z,18.87
2016-07-10T00:29:40.738Z,18.94
2016-07-10T00:30:40.743Z,18.99
2016-07-10T00:31:40.740Z,18.94
2016-07-10T00:32:40.762Z,19.02
2016-07-10T00:33:40.776Z,19.06
2016-07-10T00:34:40.766Z,18.98
2016-07-10T00:35:40.736Z,19.08
2016-07-10T00:36:40.748Z,19.02
2016-07-10T00:37:40.771Z,19.02
2016-07-10T00:38:40.749Z,19.05
2016-07-10T00:39:40.771Z,18.92
2016-07-10T00:40:40.791Z,18.97
2016-07-10T00:41:40.739Z,18.92
2016-07-10T00:42:40.761Z,18.97
2016-07-10T00:43:40.780Z,18.9
2016-07-10T00:44:40.758Z,18.94
2016-07-10T00:45:40.740Z,18.87
2016-07-10T00:46:40.774Z,18.94
2016-07-10T00:47:40.750Z,18.84
2016-07-10T00:48:40.774Z,18.95
2016-07-10T00:49:40.750Z,18.92
2016-07-10T00:50:40.765Z,18.92
2016-07-10T00:51:40.875Z,18.97
2016-07-10T00:52:40.746Z,18.86
2016-07-10T00:53:40.834Z,18.83
2016-07-10T00:54:40.752Z,18.94
2016-07-10T00:55:40.767Z,18.86
2016-07-10T00:56:40.790Z,18.84
2016-07-10T00:57:40.782Z,18.77
2016-07-10T00:58:40.800Z,18.74
2016-07-10T00:59:40.792Z,18.79
2016-07-10T01:00:40.800Z,18.87
2016-07-10T01:01:40.809Z,18.8
2016-07-10T01:02:40.825Z,18.79
2016-07-10T01:03:40.778Z,18.72
2016-07-10T01:04:40.803Z,18.77
2016-07-10T01:05:40.831Z,18.72
2016-07-10T01:06:40.771Z,18.72
2016-07-10T01:07:40.813Z,18.64
2016-07-10T01:08:40.756Z,18.73
2016-07-10T01:09:40.797Z,18.73
2016-07-10T01:10:40.829Z,18.73
2016-07-10T01:11:40.749Z,18.68
2016-07-10T01:12:40.797Z,18.77
2016-07-10T01:13:40.765Z,18.73
2016-07-10T01:14:40.795Z,18.65
2016-07-10T01:15:40.768Z,18.74
2016-07-10T01:16:40.773Z,18.68
2016-07-10T01:17:40.778Z,18.74
2016-07-10T01:18:40.802Z,18.61
2016-07-10T01:19:40.835Z,18.74
2016-07-10T01:20:40.805Z,18.67
2016-07-10T01:21:40.790Z,18.73
2016-07-10T01:22:40.827Z,18.64
2016-07-10T01:23:40.786Z,18.7
2016-07-10T01:24:40.818Z,18.7
2016-07-10T01:25:40.774Z,18.62
2016-07-10T01:26:40.792Z,18.74
2016-07-10T01:27:40.827Z,18.67
2016-07-10T01:28:40.843Z,18.64
2016-07-10T01:29:40.826Z,18.72
2016-07-10T01:30:40.827Z,18.68
2016-07-10T01:31:40.848Z,18.65
2016-07-10T01:32:40.813Z,18.59
2016-07-10T01:33:40.806Z,18.67
2016-07-10T01:34:40.833Z,18.67
2016-07-10T01:35:40.831Z,18.59
2016-07-10T01:36:40.830Z,18.54
2016-07-10T01:37:40.834Z,18.54
2016-07-10T01:38:40.823Z,18.5
2016-07-10T01:39:40.828Z,18.47
2016-07-10T01:40:40.803Z,18.54
2016-07-10T01:41:40.840Z,18.47
2016-07-10T01:42:40.849Z,18.46
2016-07-10T01:43:40.809Z,18.44
2016-07-10T01:44:40.833Z,18.5
2016-07-10T01:45:40.792Z,18.46
2016-07-10T01:46:40.803Z,18.47
2016-07-10T01:47:40.791Z,18.39
2016-07-10T01:48:40.837Z,18.44
2016-07-10T01:49:40.822Z,18.42
2016-07-10T01:50:40.814Z,18.34
2016-07-10T01:51:40.831Z,18.43
2016-07-10T01:52:40.805Z,18.34
2016-07-10T01:53:40.821Z,18.31
2016-07-10T01:54:40.832Z,18.39
2016-07-10T01:55:40.826Z,18.36
2016-07-10T01:56:40.831Z,18.39
2016-07-10T01:57:40.851Z,18.33
2016-07-10T01:58:40.814Z,18.37
2016-07-10T01:59:40.822Z,18.33
2016-07-10T02:00:40.862Z,18.33
2016-07-10T02:01:40.820Z,18.33
2016-07-10T02:02:40.872Z,18.36
2016-07-10T02:03:40.872Z,18.31
2016-07-10T02:04:40.864Z,18.29
2016-07-10T02:05:40.909Z,18.31
2016-07-10T02:06:40.869Z,18.34
2016-07-10T02:07:40.864Z,18.29
2016-07-10T02:08:40.877Z,18.39
2016-07-10T02:09:40.854Z,18.29
2016-07-10T02:10:40.905Z,18.18
2016-07-10T02:11:40.845Z,18.21
2016-07-10T02:12:40.847Z,18.15
2016-07-10T02:13:40.866Z,18.1
2016-07-10T02:14:40.838Z,18.07
2016-07-10T02:15:40.855Z,18.1
2016-07-10T02:16:40.834Z,18.09
2016-07-10T02:17:40.864Z,18.22
2016-07-10T02:18:40.832Z,18.03
2016-07-10T02:19:40.822Z,18.13
2016-07-10T02:20:40.836Z,18.07
2016-07-10T02:21:40.834Z,18.04
2016-07-10T02:22:40.843Z,18
2016-07-10T02:23:40.848Z,17.95
2016-07-10T02:24:40.864Z,17.94
2016-07-10T02:25:40.863Z,17.89
2016-07-10T02:26:40.842Z,17.88
2016-07-10T02:27:40.834Z,17.84
2016-07-10T02:28:40.868Z,17.84
2016-07-10T02:29:40.861Z,17.91
2016-07-10T02:30:40.865Z,17.95
2016-07-10T02:31:40.860Z,17.87
2016-07-10T02:32:40.867Z,17.89
2016-07-10T02:33:40.869Z,17.88
2016-07-10T02:34:40.836Z,17.85
2016-07-10T02:35:40.843Z,17.88
2016-07-10T02:36:40.880Z,17.87
2016-07-10T02:37:40.851Z,17.78
2016-07-10T02:38:40.873Z,17.87
2016-07-10T02:39:40.899Z,17.78
2016-07-10T02:40:40.863Z,17.78
2016-07-10T02:41:40.866Z,17.81
2016-07-10T02:42:40.867Z,17.79
2016-07-10T02:43:40.867Z,17.71
2016-07-10T02:44:40.856Z,17.7
2016-07-10T02:45:40.898Z,17.74
2016-07-10T02:46:40.888Z,17.69
2016-07-10T02:47:40.901Z,17.67
2016-07-10T02:48:40.846Z,17.62
2016-07-10T02:49:40.867Z,17.67
2016-07-10T02:50:40.871Z,17.57
2016-07-10T02:51:40.884Z,17.53
2016-07-10T02:52:40.905Z,17.63
2016-07-10T02:53:40.882Z,17.54
2016-07-10T02:54:40.972Z,17.51
2016-07-10T02:55:40.903Z,17.57
2016-07-10T02:56:40.908Z,17.51
2016-07-10T02:57:40.870Z,17.55
2016-07-10T02:58:40.894Z,17.48
2016-07-10T02:59:40.877Z,17.54
2016-07-10T03:00:40.908Z,17.46
2016-07-10T03:01:40.912Z,17.48
2016-07-10T03:02:40.867Z,17.53
2016-07-10T03:03:40.896Z,17.44
2016-07-10T03:04:40.901Z,17.43
2016-07-10T03:05:40.897Z,17.51
2016-07-10T03:06:40.900Z,17.48
2016-07-10T03:07:40.898Z,17.47
2016-07-10T03:08:40.933Z,17.44
2016-07-10T03:09:40.898Z,17.38
2016-07-10T03:10:40.905Z,17.3
2016-07-10T03:11:40.958Z,17.47
2016-07-10T03:12:40.927Z,17.41
2016-07-10T03:13:40.939Z,17.38
2016-07-10T03:14:40.937Z,17.33
2016-07-10T03:15:40.943Z,17.33
2016-07-10T03:16:40.981Z,17.32
2016-07-10T03:17:40.929Z,17.35
2016-07-10T03:18:40.963Z,17.29
2016-07-10T03:19:40.907Z,17.35
2016-07-10T03:20:40.949Z,17.3
2016-07-10T03:21:40.926Z,17.29
2016-07-10T03:22:40.931Z,17.25
2016-07-10T03:23:40.907Z,17.29
2016-07-10T03:24:40.915Z,17.35
2016-07-10T03:25:40.917Z,17.32
2016-07-10T03:26:40.937Z,17.35
2016-07-10T03:27:40.916Z,17.3
2016-07-10T03:28:40.910Z,17.26
2016-07-10T03:29:40.989Z,17.28
2016-07-10T03:30:40.939Z,17.41
2016-07-10T03:31:40.923Z,17.32
2016-07-10T03:32:40.932Z,17.32
2016-07-10T03:33:40.943Z,17.41
2016-07-10T03:34:40.938Z,17.28
2016-07-10T03:35:40.939Z,17.28
2016-07-10T03:36:40.953Z,17.25
2016-07-10T03:37:40.932Z,17.41
2016-07-10T03:38:40.930Z,17.33
2016-07-10T03:39:40.912Z,17.33
2016-07-10T03:40:40.917Z,17.3
2016-07-10T03:41:40.933Z,17.41
2016-07-10T03:42:40.940Z,17.38
2016-07-10T03:43:40.906Z,17.46
2016-07-10T03:44:40.907Z,17.47
2016-07-10T03:45:40.957Z,17.5
2016-07-10T03:46:40.960Z,17.51
2016-07-10T03:47:41.598Z,17.47
2016-07-10T03:48:40.962Z,17.59
2016-07-10T03:49:40.931Z,17.55
2016-07-10T03:50:40.988Z,17.62
2016-07-10T03:51:40.991Z,17.55
2016-07-10T03:52:40.988Z,17.46
2016-07-10T03:53:40.988Z,17.54
2016-07-10T03:54:40.959Z,17.54
2016-07-10T03:55:40.957Z,17.62
2016-07-10T03:56:40.951Z,17.62
2016-07-10T03:57:40.958Z,17.54
2016-07-10T03:58:40.929Z,17.64
2016-07-10T03:59:40.939Z,17.69
2016-07-10T04:00:40.929Z,17.64
2016-07-10T04:01:40.943Z,17.59
2016-07-10T04:02:40.944Z,17.62
2016-07-10T04:03:40.927Z,17.66
2016-07-10T04:04:40.960Z,17.71
2016-07-10T04:05:40.935Z,17.55
2016-07-10T04:06:40.928Z,17.63
2016-07-10T04:07:40.922Z,17.73
2016-07-10T04:08:40.964Z,17.74
2016-07-10T04:09:40.954Z,17.76
2016-07-10T04:10:40.942Z,17.66
2016-07-10T04:11:40.948Z,17.74
2016-07-10T04:12:40.960Z,17.81
2016-07-10T04:13:40.974Z,17.76
2016-07-10T04:14:40.959Z,17.82
2016-07-10T04:15:40.929Z,17.73
2016-07-10T04:16:40.936Z,17.82
2016-07-10T04:17:40.960Z,17.81
2016-07-10T04:18:40.961Z,17.84
2016-07-10T04:19:40.960Z,17.84
2016-07-10T04:20:40.926Z,17.85
2016-07-10T04:21:40.944Z,17.91
2016-07-10T04:22:40.941Z,17.84
2016-07-10T04:23:40.971Z,17.87
2016-07-10T04:24:40.959Z,17.73
2016-07-10T04:25:40.957Z,17.82
2016-07-10T04:26:40.970Z,17.81
2016-07-10T04:27:40.969Z,17.79
2016-07-10T04:28:40.962Z,17.85
2016-07-10T04:29:40.959Z,17.87
2016-07-10T04:30:40.945Z,17.78
2016-07-10T04:31:40.951Z,17.88
2016-07-10T04:32:40.989Z,17.87
2016-07-10T04:33:40.984Z,17.87
2016-07-10T04:34:40.967Z,17.97
2016-07-10T04:35:40.993Z,17.99
2016-07-10T04:36:40.986Z,18
2016-07-10T04:37:40.949Z,18
2016-07-10T04:38:40.957Z,18.07
2016-07-10T04:39:40.982Z,18.07
2016-07-10T04:40:40.975Z,18.15
2016-07-10T04:41:40.992Z,18.13
2016-07-10T04:42:40.991Z,18.19
2016-07-10T04:43:40.960Z,18.24
2016-07-10T04:44:40.991Z,18.36
2016-07-10T04:45:40.971Z,18.36
2016-07-10T04:46:40.982Z,18.46
2016-07-10T04:47:40.963Z,18.46
2016-07-10T04:48:40.980Z,18.47
2016-07-10T04:49:40.990Z,18.54
2016-07-10T04:50:40.995Z,18.57
2016-07-10T04:51:40.985Z,18.55
2016-07-10T04:52:40.964Z,18.64
2016-07-10T04:53:41.054Z,18.58
2016-07-10T04:54:41.002Z,18.68
2016-07-10T04:55:40.992Z,18.65
2016-07-10T04:56:40.993Z,18.73
2016-07-10T04:57:41.028Z,18.86
2016-07-10T04:58:41.052Z,18.79
2016-07-10T04:59:40.971Z,18.97
2016-07-10T05:00:41.007Z,18.83
2016-07-10T05:01:41.014Z,18.94
2016-07-10T05:02:41.023Z,18.86
2016-07-10T05:03:40.996Z,18.92
2016-07-10T05:04:40.990Z,18.91
2016-07-10T05:05:40.994Z,18.86
2016-07-10T05:06:41.022Z,18.9
2016-07-10T05:07:41.014Z,18.87
2016-07-10T05:08:40.975Z,18.82
2016-07-10T05:09:41.000Z,18.87
2016-07-10T05:10:40.969Z,18.87
2016-07-10T05:11:41.050Z,18.87
2016-07-10T05:12:40.998Z,18.82
2016-07-10T05:13:40.995Z,19.06
2016-07-10T05:14:41.008Z,19.01
2016-07-10T05:15:41.014Z,18.98
2016-07-10T05:16:41.029Z,18.94
2016-07-10T05:17:40.997Z,19.05
2016-07-10T05:18:41.003Z,19.06
2016-07-10T05:19:41.008Z,19.08
2016-07-10T05:20:41.010Z,19.14
2016-07-10T05:21:40.984Z,19.05
2016-07-10T05:22:41.023Z,19.15
2016-07-10T05:23:41.030Z,19.14
2016-07-10T05:24:41.080Z,19.31
2016-07-10T05:25:41.012Z,19.36
2016-07-10T05:26:41.062Z,19.36
2016-07-10T05:27:41.025Z,19.42
2016-07-10T05:28:40.992Z,19.36
2016-07-10T05:29:40.994Z,19.51
2016-07-10T05:30:41.011Z,19.57
2016-07-10T05:31:41.017Z,19.63
2016-07-10T05:32:40.992Z,19.69
2016-07-10T05:33:41.022Z,19.83
2016-07-10T05:34:41.002Z,19.84
2016-07-10T05:35:41.025Z,19.98
2016-07-10T05:36:41.022Z,20.13
2016-07-10T05:37:42.053Z,20.24
2016-07-10T05:38:41.032Z,20.33
2016-07-10T05:39:41.039Z,20.5
2016-07-10T05:40:40.999Z,20.58
2016-07-10T05:41:41.086Z,20.68
2016-07-10T05:42:41.013Z,20.84
2016-07-10T05:43:41.027Z,20.89
2016-07-10T05:44:41.034Z,20.93
2016-07-10T05:45:41.039Z,20.89
2016-07-10T05:46:41.076Z,20.91
2016-07-10T05:47:41.057Z,20.93
2016-07-10T05:48:41.026Z,20.91
2016-07-10T05:49:41.083Z,20.89
2016-07-10T05:50:41.033Z,20.95
2016-07-10T05:51:41.067Z,20.86
2016-07-10T05:52:41.091Z,20.9
2016-07-10T05:53:41.056Z,21.02
2016-07-10T05:54:41.068Z,21.16
2016-07-10T05:55:41.067Z,21.17
2016-07-10T05:56:41.103Z,21.26
2016-07-10T05:57:41.090Z,21.35
2016-07-10T05:58:41.055Z,21.29
2016-07-10T05:59:41.087Z,21.11
2016-07-10T06:00:41.059Z,21.17
2016-07-10T06:01:41.986Z,21.3
2016-07-10T06:02:41.063Z,21.29
2016-07-10T06:03:41.087Z,21.34
2016-07-10T06:04:41.086Z,21.57
2016-07-10T06:05:41.093Z,21.53
2016-07-10T06:06:41.042Z,21.59
2016-07-10T06:07:41.064Z,21.85
2016-07-10T06:08:41.115Z,21.72
2016-07-10T06:09:41.092Z,21.79
2016-07-10T06:10:41.129Z,21.74
2016-07-10T06:11:41.089Z,21.81
2016-07-10T06:12:41.050Z,21.91
2016-07-10T06:13:41.058Z,21.85
2016-07-10T06:14:41.053Z,21.97
2016-07-10T06:15:41.058Z,22.09
2016-07-10T06:16:41.064Z,22.16
2016-07-10T06:17:41.056Z,22.27
2016-07-10T06:18:41.063Z,22.37
2016-07-10T06:19:41.088Z,22.5
2016-07-10T06:20:41.095Z,22.46
2016-07-10T06:21:41.086Z,22.53
2016-07-10T06:22:41.122Z,22.64
2016-07-10T06:23:41.118Z,22.65
2016-07-10T06:24:41.062Z,22.74
2016-07-10T06:25:41.105Z,22.82
2016-07-10T06:26:41.081Z,22.87
2016-07-10T06:27:41.057Z,22.89
2016-07-10T06:28:41.093Z,22.93
2016-07-10T06:29:41.071Z,22.94
2016-07-10T06:30:41.072Z,22.97
2016-07-10T06:31:41.107Z,23.09
2016-07-10T06:32:41.089Z,23.12
2016-07-10T06:33:41.082Z,23.23
2016-07-10T06:34:41.097Z,23.55
2016-07-10T06:35:41.119Z,23.89
2016-07-10T06:36:41.117Z,24.27
2016-07-10T06:37:41.135Z,24.92
2016-07-10T06:38:41.090Z,25.62
2016-07-10T06:39:41.109Z,26.06
2016-07-10T06:40:41.775Z,26.73
2016-07-10T06:41:41.148Z,27.31
2016-07-10T06:42:41.072Z,27.85
2016-07-10T06:43:41.120Z,28.33
2016-07-10T06:44:41.112Z,28.85
2016-07-10T06:45:41.150Z,29.26
2016-07-10T06:46:41.120Z,29.55
2016-07-10T06:47:41.082Z,29.63
2016-07-10T06:48:41.094Z,30.15
2016-07-10T06:49:41.120Z,30.43
2016-07-10T06:50:41.084Z,30.27
2016-07-10T06:51:41.071Z,30.45
2016-07-10T06:52:41.095Z,30.86
2016-07-10T06:53:41.100Z,31.11
2016-07-10T06:54:41.079Z,30.64
2016-07-10T06:55:41.094Z,31.04
2016-07-10T06:56:41.123Z,31.3
2016-07-10T06:57:41.116Z,31.6
2016-07-10T06:58:41.091Z,31.93
2016-07-10T06:59:41.119Z,31.91
2016-07-10T07:00:41.300Z,31.98
2016-07-10T07:01:41.149Z,32.1
2016-07-10T07:02:41.122Z,32.37
2016-07-10T07:03:41.154Z,32.58
2016-07-10T07:04:41.125Z,32.77
2016-07-10T07:05:41.189Z,33.04
2016-07-10T07:06:41.107Z,33.31
2016-07-10T07:07:41.128Z,33.41
2016-07-10T07:08:41.164Z,33.58
2016-07-10T07:09:41.156Z,33.71
2016-07-10T07:10:41.150Z,33.73
2016-07-10T07:11:41.157Z,33.87
2016-07-10T07:12:41.137Z,34.08
2016-07-10T07:13:41.159Z,34.01
2016-07-10T07:14:41.141Z,34
2016-07-10T07:15:41.102Z,33.94
2016-07-10T07:16:41.140Z,33.97
2016-07-10T07:17:41.144Z,34.13
2016-07-10T07:18:41.113Z,34.01
2016-07-10T07:19:41.119Z,33.87
2016-07-10T07:20:41.128Z,33.87
2016-07-10T07:21:41.143Z,34.07
2016-07-10T07:22:41.125Z,33.9
2016-07-10T07:23:41.124Z,34.07
2016-07-10T07:24:41.116Z,34.11
2016-07-10T07:25:41.167Z,33.65
2016-07-10T07:26:41.150Z,33.92
2016-07-10T07:27:41.124Z,34.07
2016-07-10T07:28:41.118Z,34.07
2016-07-10T07:29:41.139Z,33.39
2016-07-10T07:30:41.162Z,33.08
2016-07-10T07:31:41.138Z,33.3
2016-07-10T07:32:41.174Z,33.43
2016-07-10T07:33:41.136Z,33.46
2016-07-10T07:34:41.160Z,33.61
2016-07-10T07:35:41.161Z,33.79
2016-07-10T07:36:42.330Z,33.92
2016-07-10T07:37:41.182Z,34.07
2016-07-10T07:38:41.142Z,34.11
2016-07-10T07:39:41.201Z,33.95
2016-07-10T07:40:41.263Z,34.05
2016-07-10T07:41:41.183Z,33.76
2016-07-10T07:42:41.154Z,33.64
2016-07-10T07:43:41.149Z,33.48
2016-07-10T07:44:41.187Z,33.6
2016-07-10T07:45:41.571Z,33.67
2016-07-10T07:46:41.157Z,33.83
2016-07-10T07:47:41.176Z,33.8
2016-07-10T07:48:41.161Z,33.87
2016-07-10T07:49:41.192Z,33.78
2016-07-10T07:50:41.236Z,33.83
2016-07-10T07:51:41.202Z,33.85
2016-07-10T07:52:41.213Z,33.71
2016-07-10T07:53:41.162Z,33.79
2016-07-10T07:54:41.155Z,33.86
2016-07-10T07:55:41.186Z,33.68
2016-07-10T07:56:41.178Z,33.48
2016-07-10T07:57:41.184Z,33.45
2016-07-10T07:58:41.224Z,33.48
2016-07-10T07:59:41.280Z,33.23
2016-07-10T08:00:41.306Z,33.29
2016-07-10T08:01:41.263Z,33.33
2016-07-10T08:02:41.204Z,33.23
2016-07-10T08:03:41.187Z,33.22
2016-07-10T08:04:41.176Z,33.04
2016-07-10T08:05:41.164Z,32.98
2016-07-10T08:06:41.210Z,32.84
2016-07-10T08:07:41.220Z,32.77
2016-07-10T08:08:41.216Z,32.64
2016-07-10T08:09:41.180Z,32.48
2016-07-10T08:10:41.213Z,32.17
2016-07-10T08:11:41.159Z,32.21
2016-07-10T08:12:41.211Z,32.05
2016-07-10T08:13:41.189Z,31.99
2016-07-10T08:14:41.334Z,32.03
2016-07-10T08:15:41.178Z,31.87
2016-07-10T08:16:41.175Z,31.75
2016-07-10T08:17:41.180Z,31.72
2016-07-10T08:18:41.179Z,31.64
2016-07-10T08:19:41.182Z,31.36
2016-07-10T08:20:41.174Z,31.21
2016-07-10T08:21:41.209Z,31.11
2016-07-10T08:22:41.180Z,31.04
2016-07-10T08:23:41.193Z,30.83
2016-07-10T08:24:41.242Z,30.57
2016-07-10T08:25:41.220Z,30.54
2016-07-10T08:26:41.217Z,30.57
2016-07-10T08:27:41.275Z,30.46
2016-07-10T08:28:41.225Z,30.34
2016-07-10T08:29:41.190Z,30.29
2016-07-10T08:30:41.313Z,30.15
2016-07-10T08:31:41.244Z,30.09
2016-07-10T08:32:41.226Z,29.97
2016-07-10T08:33:41.341Z,30.03
2016-07-10T08:34:41.445Z,29.82
2016-07-10T08:35:41.214Z,29.82
2016-07-10T08:36:41.250Z,29.74
2016-07-10T08:37:41.211Z,29.68
2016-07-10T08:38:41.223Z,29.63
2016-07-10T08:39:41.226Z,29.55
2016-07-10T08:40:41.365Z,29.4
2016-07-10T08:41:41.275Z,29.43
2016-07-10T08:42:41.244Z,29.25
2016-07-10T08:43:42.015Z,29.13
2016-07-10T08:44:41.264Z,29.16
2016-07-10T08:45:41.310Z,29.1
2016-07-10T08:46:41.247Z,29.06
2016-07-10T08:47:41.294Z,29.04
2016-07-10T08:48:41.238Z,28.91
2016-07-10T08:49:41.248Z,28.88
2016-07-10T08:50:41.215Z,28.81
2016-07-10T08:51:41.269Z,28.85
2016-07-10T08:52:41.255Z,28.81
2016-07-10T08:53:41.433Z,28.96
2016-07-10T08:54:41.359Z,28.96
2016-07-10T08:55:41.312Z,29.01
2016-07-10T08:56:41.299Z,29.06
2016-07-10T08:57:41.263Z,29.1
2016-07-10T08:58:41.547Z,29.13
2016-07-10T08:59:41.348Z,29.15
2016-07-10T09:00:41.314Z,29.15
2016-07-10T09:01:41.258Z,29.19
2016-07-10T09:02:41.272Z,29.18
2016-07-10T09:03:41.552Z,28.96
2016-07-10T09:04:41.280Z,29.11
2016-07-10T09:05:41.284Z,29.04
2016-07-10T09:06:41.279Z,29.07
2016-07-10T09:07:41.426Z,29.11
2016-07-10T09:08:41.281Z,29.19
2016-07-10T09:09:41.461Z,29.04
2016-07-10T09:10:41.367Z,29.07
2016-07-10T09:11:41.287Z,28.95
2016-07-10T09:12:41.308Z,29.11
2016-07-10T09:13:41.239Z,29.1
2016-07-10T09:14:41.350Z,29.19
2016-07-10T09:15:41.362Z,29.38
2016-07-10T09:16:41.368Z,29.44
2016-07-10T09:17:41.478Z,29.52
2016-07-10T09:18:41.432Z,29.7
2016-07-10T09:19:41.307Z,29.72
2016-07-10T09:20:41.518Z,29.74
2016-07-10T09:21:41.368Z,29.63
2016-07-10T09:22:41.274Z,29.71
2016-07-10T09:23:41.290Z,29.71
2016-07-10T09:24:41.270Z,29.81
2016-07-10T09:25:41.252Z,29.81
2016-07-10T09:26:41.306Z,29.72
2016-07-10T09:27:41.280Z,29.6
2016-07-10T09:28:41.281Z,29.47
2016-07-10T09:29:41.305Z,29.5
2016-07-10T09:30:41.309Z,29.59
2016-07-10T09:31:41.319Z,29.5
2016-07-10T09:32:41.346Z,29.33
2016-07-10T09:33:41.319Z,29.37
2016-07-10T09:34:41.325Z,29.29
2016-07-10T09:35:41.336Z,29.35
2016-07-10T09:36:41.331Z,29.5
2016-07-10T09:37:41.308Z,29.5
2016-07-10T09:38:41.292Z,29.59
2016-07-10T09:39:41.261Z,29.63
2016-07-10T09:40:41.321Z,29.84
2016-07-10T09:41:41.329Z,29.9
2016-07-10T09:42:41.316Z,29.9
2016-07-10T09:43:41.344Z,29.6
2016-07-10T09:44:41.429Z,29.86
2016-07-10T09:45:41.370Z,29.82
2016-07-10T09:46:41.393Z,30
2016-07-10T09:47:41.326Z,30.14
2016-07-10T09:48:41.370Z,30.11
2016-07-10T09:49:41.575Z,30
2016-07-10T09:50:41.317Z,30.05
2016-07-10T09:51:41.281Z,30.07
2016-07-10T09:52:41.393Z,30.08
2016-07-10T09:53:41.309Z,30.09
2016-07-10T09:54:41.316Z,30.29
2016-07-10T09:55:41.306Z,30.12
2016-07-10T09:56:41.442Z,30.21
2016-07-10T09:57:41.309Z,29.92
2016-07-10T09:58:41.315Z,30
2016-07-10T09:59:41.339Z,30.11
2016-07-10T10:00:41.310Z,30.23
2016-07-10T10:01:41.311Z,30.27
2016-07-10T10:02:41.329Z,30.23
2016-07-10T10:03:41.338Z,30.15
2016-07-10T10:04:41.359Z,30.33
2016-07-10T10:05:41.399Z,30.3
2016-07-10T10:06:41.320Z,30.45
2016-07-10T10:07:41.369Z,30.65
2016-07-10T10:08:41.398Z,30.67
2016-07-10T10:09:41.376Z,30.9
2016-07-10T10:10:41.323Z,30.9
2016-07-10T10:11:41.378Z,31.01
2016-07-10T10:12:41.326Z,30.83
2016-07-10T10:13:41.359Z,30.72
2016-07-10T10:14:41.376Z,30.54
2016-07-10T10:15:41.346Z,30.57
2016-07-10T10:16:41.417Z,30.75
2016-07-10T10:17:41.382Z,30.64
2016-07-10T10:18:41.336Z,30.53
2016-07-10T10:19:41.310Z,30.71
2016-07-10T10:20:41.350Z,30.57
2016-07-10T10:21:41.362Z,30.59
2016-07-10T10:22:41.348Z,30.8
2016-07-10T10:23:41.342Z,30.54
2016-07-10T10:24:41.334Z,30.59
2016-07-10T10:25:41.374Z,30.53
2016-07-10T10:26:41.384Z,30.59
2016-07-10T10:27:41.333Z,30.64
2016-07-10T10:28:41.339Z,30.67
2016-07-10T10:29:41.384Z,30.75
2016-07-10T10:30:41.368Z,30.65
2016-07-10T10:31:41.349Z,30.64
2016-07-10T10:32:41.346Z,30.59
2016-07-10T10:33:41.357Z,30.57
2016-07-10T10:34:41.327Z,30.76
2016-07-10T10:35:41.363Z,30.57
2016-07-10T10:36:41.358Z,30.72
2016-07-10T10:37:41.372Z,30.68
2016-07-10T10:38:41.415Z,30.68
2016-07-10T10:39:41.346Z,30.71
2016-07-10T10:40:41.370Z,30.72
2016-07-10T10:41:41.429Z,30.83
2016-07-10T10:42:41.392Z,30.86
2016-07-10T10:43:41.433Z,31.01
2016-07-10T10:44:41.394Z,30.96
2016-07-10T10:45:41.402Z,31.11
2016-07-10T10:46:41.348Z,31.06
2016-07-10T10:47:41.387Z,30.91
2016-07-10T10:48:41.352Z,31.01
2016-07-10T10:49:41.429Z,31.2
2016-07-10T10:50:41.400Z,31.3
2016-07-10T10:51:41.437Z,31.46
2016-07-10T10:52:41.398Z,31.5
2016-07-10T10:53:41.421Z,31.62
2016-07-10T10:54:41.363Z,31.67
2016-07-10T10:55:41.389Z,31.73
2016-07-10T10:56:41.378Z,31.76
2016-07-10T10:57:41.418Z,31.72
2016-07-10T10:58:41.381Z,31.84
2016-07-10T10:59:41.373Z,31.91
2016-07-10T11:00:41.441Z,31.92
2016-07-10T11:01:41.514Z,31.98
2016-07-10T11:02:41.420Z,31.92
2016-07-10T11:03:41.414Z,31.98
2016-07-10T11:04:41.460Z,31.91
2016-07-10T11:05:41.403Z,31.88
2016-07-10T11:06:41.598Z,31.88
2016-07-10T11:07:41.400Z,31.91
2016-07-10T11:08:41.434Z,32.03
2016-07-10T11:09:41.456Z,32
2016-07-10T11:10:41.424Z,32.03
2016-07-10T11:11:41.419Z,32.14
2016-07-10T11:12:41.414Z,32.07
2016-07-10T11:13:41.407Z,32.02
2016-07-10T11:14:41.609Z,32.06
2016-07-10T11:15:41.474Z,32.1
2016-07-10T11:16:41.461Z,32.02
2016-07-10T11:17:42.091Z,32.07
2016-07-10T11:18:41.548Z,32.07
2016-07-10T11:19:41.395Z,31.93
2016-07-10T11:20:41.464Z,31.73
2016-07-10T11:21:41.421Z,31.7
2016-07-10T11:22:41.449Z,31.72
2016-07-10T11:23:41.406Z,31.5
2016-07-10T11:24:42.209Z,31.42
2016-07-10T11:25:41.469Z,31.2
2016-07-10T11:26:41.428Z,31.26
2016-07-10T11:27:41.507Z,31.12
2016-07-10T11:28:41.612Z,31.2
2016-07-10T11:29:41.428Z,31.13
2016-07-10T11:30:41.435Z,31.17
2016-07-10T11:31:41.406Z,31.05
2016-07-10T11:32:41.467Z,31.04
2016-07-10T11:33:41.443Z,31.11
2016-07-10T11:34:41.450Z,31.02
2016-07-10T11:35:41.430Z,30.99
2016-07-10T11:36:41.413Z,30.9
2016-07-10T11:37:41.424Z,30.89
2016-07-10T11:38:41.432Z,30.81
2016-07-10T11:39:41.551Z,30.9
2016-07-10T11:40:41.423Z,30.84
2016-07-10T11:41:41.442Z,30.87
2016-07-10T11:42:41.447Z,30.75
2016-07-10T11:43:41.448Z,30.74
2016-07-10T11:44:41.470Z,30.87
2016-07-10T11:45:41.429Z,30.9
2016-07-10T11:46:41.447Z,30.93
2016-07-10T11:47:41.447Z,30.89
2016-07-10T11:48:41.482Z,30.86
2016-07-10T11:49:41.489Z,30.83
2016-07-10T11:50:41.496Z,30.8
2016-07-10T11:51:41.566Z,30.72
2016-07-10T11:52:41.486Z,30.72
2016-07-10T11:53:41.470Z,30.54
2016-07-10T11:54:41.458Z,30.53
2016-07-10T11:55:41.464Z,30.34
2016-07-10T11:56:41.455Z,30.5
2016-07-10T11:57:41.431Z,30.49
2016-07-10T11:58:41.467Z,30.59
2016-07-10T11:59:41.444Z,30.67
2016-07-10T12:00:41.434Z,30.86
2016-07-10T12:01:41.516Z,30.93
2016-07-10T12:02:41.451Z,31.12
2016-07-10T12:03:41.580Z,31.09
2016-07-10T12:04:41.500Z,31.12
2016-07-10T12:05:41.510Z,31.09
2016-07-10T12:06:41.497Z,31.08
2016-07-10T12:07:41.426Z,31.11
2016-07-10T12:08:41.526Z,31.09
2016-07-10T12:09:41.506Z,31.08
2016-07-10T12:10:41.465Z,30.98
2016-07-10T12:11:41.472Z,31.06
2016-07-10T12:12:41.498Z,31.11
2016-07-10T12:13:41.488Z,31.26
2016-07-10T12:14:41.553Z,31.23
2016-07-10T12:15:41.457Z,31.21
2016-07-10T12:16:41.527Z,31.33
2016-07-10T12:17:41.499Z,31.36
2016-07-10T12:18:41.528Z,31.31
2016-07-10T12:19:41.467Z,31.13
2016-07-10T12:20:41.532Z,31.15
2016-07-10T12:21:41.527Z,31.27
2016-07-10T12:22:41.454Z,31.4
2016-07-10T12:23:41.516Z,31.36
2016-07-10T12:24:41.483Z,31.53
2016-07-10T12:25:41.461Z,31.43
2016-07-10T12:26:41.518Z,31.38
2016-07-10T12:27:41.540Z,31.48
2016-07-10T12:28:42.150Z,31.45
2016-07-10T12:29:41.507Z,31.58
2016-07-10T12:30:41.558Z,31.62
2016-07-10T12:31:41.498Z,31.36
2016-07-10T12:32:41.527Z,31.36
2016-07-10T12:33:41.499Z,31.23
2016-07-10T12:34:41.496Z,31.48
2016-07-10T12:35:41.495Z,31.49
2016-07-10T12:36:41.517Z,31.72
2016-07-10T12:37:41.517Z,31.79
2016-07-10T12:38:41.507Z,31.82
2016-07-10T12:39:41.499Z,31.88
2016-07-10T12:40:42.777Z,31.95
2016-07-10T12:41:41.502Z,31.73
2016-07-10T12:42:41.523Z,31.67
2016-07-10T12:43:41.551Z,31.53
2016-07-10T12:44:41.518Z,31.49
2016-07-10T12:45:41.501Z,31.4
2016-07-10T12:46:41.523Z,31.57
2016-07-10T12:47:41.502Z,31.58
2016-07-10T12:48:41.524Z,31.68
2016-07-10T12:49:42.175Z,31.82
2016-07-10T12:50:41.555Z,31.84
2016-07-10T12:51:41.563Z,31.68
2016-07-10T12:52:41.536Z,31.68
2016-07-10T12:53:41.560Z,31.6
2016-07-10T12:54:41.534Z,31.36
2016-07-10T12:55:42.228Z,31.23